Time;durP1;ratioP1;P1;durP2;ratioP2;P2;SDS_P1;SDS_P2;PMS_P1;PMS_P2;Temp;Humidity;BMP_temperature;BMP_pressure;BME280_temperature;BME280_humidity;BME280_pressure;Samples;Min_cycle;Max_cycle;Signal;HPM_P1;HPM_P2
2023/08/25 00:01:39;;;;;;;7.70;6.30;;;22.90;99.90;;;23.43;100.00;100121.97;4978102;28;20754;-63
2023/08/25 00:04:06;;;;;;;9.30;6.90;;;22.90;99.90;;;23.41;100.00;100129.34;4988371;28;20716;-65
2023/08/25 00:06:33;;;;;;;6.40;5.77;;;22.80;99.90;;;23.40;100.00;100131.19;4987815;28;20642;-64
2023/08/25 00:09:00;;;;;;;6.47;5.87;;;22.80;99.90;;;23.42;100.00;100131.81;4978050;28;20700;-63
2023/08/25 00:11:27;;;;;;;7.73;6.40;;;22.80;99.90;;;23.42;100.00;100123.81;4974427;28;20667;-63
2023/08/25 00:13:54;;;;;;;7.73;6.47;;;22.80;99.90;;;23.44;100.00;100131.59;4992104;28;21043;-63
2023/08/25 00:16:21;;;;;;;9.07;6.90;;;22.80;99.90;;;23.48;100.00;100119.50;4979154;28;20720;-63
2023/08/25 00:18:48;;;;;;;8.27;6.27;;;22.90;99.90;;;23.49;100.00;100127.28;4991459;28;21022;-63
2023/08/25 00:21:15;;;;;;;7.57;6.37;;;22.90;99.90;;;23.49;100.00;100131.81;4987515;28;20650;-64
2023/08/25 00:23:42;;;;;;;8.13;6.13;;;22.90;99.90;;;23.49;100.00;100137.13;4979081;28;20643;-63
2023/08/25 00:26:09;;;;;;;7.23;5.40;;;22.90;99.90;;;23.46;100.00;100143.69;4988315;28;20630;-63
2023/08/25 00:28:36;;;;;;;5.70;5.13;;;22.90;99.90;;;23.41;100.00;100135.47;4990754;28;20725;-63
2023/08/25 00:31:03;;;;;;;5.77;5.13;;;22.80;99.90;;;23.38;100.00;100135.91;4993000;28;20716;-63
2023/08/25 00:33:30;;;;;;;7.10;5.00;;;22.80;99.90;;;23.33;100.00;100134.88;4974506;28;21279;-63
2023/08/25 00:35:57;;;;;;;6.03;5.47;;;22.70;99.90;;;23.27;100.00;100125.84;4980079;28;20630;-63
2023/08/25 00:38:28;;;;;;;6.40;5.63;;;22.70;99.90;;;23.23;100.00;100123.78;4979587;28;20704;-63
2023/08/25 00:40:55;;;;;;;6.27;5.43;;;22.70;99.90;;;23.22;100.00;100114.16;4982013;28;20686;-63
2023/08/25 00:43:22;;;;;;;7.50;5.80;;;22.60;99.90;;;23.15;100.00;100114.13;4984076;28;20635;-63
2023/08/25 00:45:49;;;;;;;6.70;5.37;;;22.50;99.90;;;23.09;100.00;100114.94;4982862;28;21269;-63
2023/08/25 00:48:16;;;;;;;6.40;5.40;;;22.50;99.90;;;23.04;100.00;100115.56;4988417;28;20645;-63
2023/08/25 00:50:44;;;;;;;8.50;6.50;;;22.50;99.90;;;23.04;100.00;100122.75;5000019;28;21632;-63
2023/08/25 00:53:12;;;;;;;8.70;6.63;;;22.40;99.90;;;23.05;100.00;100116.38;4981418;28;20738;-63
2023/08/25 00:55:39;;;;;;;6.83;6.10;;;22.40;99.90;;;23.10;100.00;100111.28;4978304;28;20684;-63
2023/08/25 00:58:07;;;;;;;5.83;5.17;;;22.50;99.90;;;23.11;100.00;100097.78;5001397;28;21180;-63
2023/08/25 01:00:35;;;;;;;7.80;5.90;;;22.50;99.90;;;23.12;100.00;100126.03;4982048;28;20675;-63
2023/08/25 01:03:03;;;;;;;14.97;7.40;;;22.50;99.90;;;23.14;100.00;100131.16;4991349;28;21064;-63
2023/08/25 01:05:30;;;;;;;8.90;6.27;;;22.60;99.90;;;23.17;100.00;100134.19;4985492;28;20623;-63
2023/08/25 01:07:57;;;;;;;8.30;6.27;;;22.60;99.90;;;23.23;100.00;100126.44;5005631;28;20626;-63
2023/08/25 01:10:52;;;;;;;8.37;7.07;;;22.60;99.90;;;23.22;100.00;100127.44;4981649;28;20681;-63
2023/08/25 01:13:55;;;;;;;7.90;6.30;;;22.70;99.90;;;23.21;100.00;100116.00;4991116;28;20721;-63
2023/08/25 01:16:43;;;;;;;8.90;7.20;;;22.70;99.90;;;23.23;100.00;100131.75;4957453;28;20643;-63
2023/08/25 01:19:54;;;;;;;8.77;6.97;;;22.70;99.90;;;23.28;100.00;100129.28;4992152;28;20675;-63
2023/08/25 01:23:11;;;;;;;8.07;6.30;;;22.70;99.90;;;23.31;100.00;100123.56;4985101;28;20662;-63
2023/08/25 01:25:39;;;;;;;5.90;5.20;;;22.70;99.90;;;23.25;100.00;100109.25;4988406;28;20722;-63
2023/08/25 01:28:06;;;;;;;8.10;6.63;;;22.70;99.90;;;23.22;100.00;100111.47;5004589;28;20654;-63
2023/08/25 01:30:35;;;;;;;7.67;6.47;;;22.70;99.90;;;23.20;100.00;100114.34;5005639;28;20634;-63
2023/08/25 01:33:03;;;;;;;6.10;5.50;;;22.60;99.90;;;23.23;100.00;100115.78;4972745;28;21125;-63
2023/08/25 01:35:48;;;;;;;7.40;5.97;;;22.60;99.90;;;23.21;100.00;100118.66;4979973;28;20650;-63
2023/08/25 01:38:27;;;;;;;8.30;6.27;;;22.60;99.90;;;23.17;100.00;100120.06;4989321;28;20634;-63
2023/08/25 01:41:07;;;;;;;8.20;6.90;;;22.60;99.90;;;23.17;100.00;100129.91;4996486;28;21264;-63
2023/08/25 01:43:39;;;;;;;9.60;7.07;;;22.60;99.90;;;23.14;100.00;100108.03;5004105;28;20628;-63
2023/08/25 01:46:09;;;;;;;7.37;6.13;;;22.60;99.90;;;23.15;100.00;100104.31;4988438;28;20634;-63
2023/08/25 01:48:38;;;;;;;9.70;7.47;;;22.50;99.90;;;23.15;100.00;100100.81;5001933;28;20813;-63
2023/08/25 01:51:05;;;;;;;7.13;5.70;;;22.50;99.90;;;23.19;100.00;100109.25;5005251;28;20761;-63
2023/08/25 01:53:32;;;;;;;8.40;6.10;;;22.60;99.90;;;23.21;100.00;100101.88;4986549;28;20733;-63
2023/08/25 01:55:59;;;;;;;8.50;6.90;;;22.60;99.90;;;23.17;100.00;100104.94;4986202;28;20666;-64
2023/08/25 01:58:27;;;;;;;9.00;6.67;;;22.60;99.90;;;23.18;100.00;100108.41;4964283;28;20723;-63
2023/08/25 02:02:37;;;;;;;7.87;6.70;;;22.60;99.90;;;23.19;100.00;100107.41;4985470;28;20909;-64
2023/08/25 02:05:04;;;;;;;5.50;5.00;;;22.60;99.90;;;23.21;100.00;100109.84;4982070;28;20704;-65
2023/08/25 02:07:31;;;;;;;6.47;5.23;;;22.60;99.90;;;23.15;100.00;100099.00;4975374;28;20649;-64
2023/08/25 02:09:58;;;;;;;5.90;5.30;;;22.60;99.90;;;23.11;100.00;100104.94;4980542;28;20643;-64
2023/08/25 02:12:25;;;;;;;5.27;4.77;;;22.50;99.90;;;23.05;100.00;100093.25;4977141;28;20658;-64
2023/08/25 02:14:52;;;;;;;5.83;5.23;;;22.50;99.90;;;23.00;100.00;100086.91;4983200;28;20636;-65
2023/08/25 02:17:19;;;;;;;6.47;5.57;;;22.40;99.90;;;22.93;100.00;100089.59;4983698;28;20626;-65
2023/08/25 02:19:46;;;;;;;9.30;5.10;;;22.40;99.90;;;22.91;100.00;100102.22;4982992;28;20634;-64
2023/08/25 02:22:13;;;;;;;9.30;6.40;;;22.30;99.90;;;22.87;100.00;100103.66;4982742;28;20739;-65
2023/08/25 02:24:40;;;;;;;8.30;6.63;;;22.30;99.90;;;22.88;100.00;100107.16;4978831;28;21441;-65
2023/08/25 02:27:07;;;;;;;15.47;6.60;;;22.30;99.90;;;22.91;100.00;100102.22;5001500;28;20700;-64
2023/08/25 02:29:34;;;;;;;7.20;5.73;;;22.30;99.90;;;22.92;100.00;100095.91;4989519;28;20643;-65
2023/08/25 02:32:03;;;;;;;5.87;5.30;;;22.30;99.90;;;22.90;100.00;100084.66;4981756;28;20682;-64
2023/08/25 02:34:30;;;;;;;5.47;4.90;;;22.30;99.90;;;22.89;100.00;100088.31;4976937;28;20651;-65
2023/08/25 02:36:57;;;;;;;7.37;4.63;;;22.30;99.90;;;22.84;100.00;100079.31;4984064;28;20729;-64
2023/08/25 02:39:23;;;;;;;5.00;4.53;;;22.30;99.90;;;22.81;100.00;100075.22;4978583;28;20656;-65
2023/08/25 02:41:51;;;;;;;10.97;4.90;;;22.30;99.90;;;22.77;100.00;100079.31;4983187;28;20675;-65
2023/08/25 02:44:17;;;;;;;6.03;5.10;;;22.20;99.90;;;22.73;100.00;100086.06;4983670;28;20635;-64
2023/08/25 02:46:46;;;;;;;5.37;4.80;;;22.20;99.90;;;22.70;100.00;100077.66;4981597;28;20641;-64
2023/08/25 02:49:12;;;;;;;5.53;4.90;;;22.10;99.90;;;22.68;100.00;100077.84;4990345;28;20618;-65
2023/08/25 02:51:39;;;;;;;4.97;4.57;;;22.10;99.90;;;22.61;100.00;100069.06;5014533;28;20754;-64
2023/08/25 02:54:06;;;;;;;5.53;4.70;;;22.00;99.90;;;22.58;100.00;100063.28;4974419;28;20650;-64
2023/08/25 02:56:33;;;;;;;5.50;4.70;;;22.00;99.90;;;22.50;100.00;100063.47;4982005;28;20729;-65
2023/08/25 02:59:00;;;;;;;5.37;4.87;;;21.90;99.90;;;22.50;100.00;100050.16;4978783;28;20649;-65
2023/08/25 03:01:27;;;;;;;7.63;6.00;;;21.90;99.90;;;22.49;100.00;100044.03;4982156;28;20690;-64
2023/08/25 03:03:55;;;;;;;4.67;4.20;;;21.90;99.90;;;22.50;100.00;100043.03;4983384;28;21203;-65
2023/08/25 03:06:22;;;;;;;5.57;5.00;;;21.90;99.90;;;22.51;100.00;100041.19;4979587;28;20653;-64
2023/08/25 03:08:49;;;;;;;5.83;4.90;;;21.90;99.90;;;22.51;100.00;100043.84;4971548;28;21060;-65
2023/08/25 03:11:16;;;;;;;5.20;4.07;;;21.90;99.90;;;22.50;100.00;100040.38;4978151;28;20686;-64
2023/08/25 03:13:43;;;;;;;4.70;4.30;;;21.90;99.90;;;22.48;100.00;100034.44;4970186;28;20635;-65
2023/08/25 03:16:10;;;;;;;5.43;4.10;;;21.90;99.90;;;22.46;100.00;100025.84;4967212;28;20646;-64
2023/08/25 03:18:37;;;;;;;4.50;3.70;;;21.90;99.90;;;22.42;100.00;100020.09;4969805;28;20692;-64
2023/08/25 03:21:05;;;;;;;4.53;4.10;;;21.80;99.90;;;22.39;100.00;100017.03;4967364;28;21311;-63
2023/08/25 03:23:32;;;;;;;5.27;4.77;;;21.80;99.90;;;22.32;100.00;100009.03;4961675;28;20720;-64
2023/08/25 03:26:03;;;;;;;5.83;4.23;;;21.70;99.90;;;22.31;100.00;100004.75;4966599;28;20682;-64
2023/08/25 03:28:30;;;;;;;4.97;4.27;;;21.70;99.90;;;22.30;100.00;100011.06;4949685;28;20631;-64
2023/08/25 03:30:56;;;;;;;4.07;3.67;;;21.70;99.90;;;22.28;100.00;100020.25;4966996;28;20716;-64
2023/08/25 03:33:23;;;;;;;4.87;3.87;;;21.70;99.90;;;22.29;100.00;100012.09;4967877;28;20646;-64
2023/08/25 03:35:50;;;;;;;4.10;3.70;;;21.70;99.90;;;22.30;100.00;100010.25;4963635;28;21200;-64
2023/08/25 03:38:17;;;;;;;4.80;3.97;;;21.70;99.90;;;22.32;100.00;100006.38;4965875;28;21021;-66
2023/08/25 03:40:44;;;;;;;4.63;4.20;;;21.70;99.90;;;22.30;100.00;99996.97;4966265;28;20762;-64
2023/08/25 03:43:11;;;;;;;4.57;4.17;;;21.70;99.90;;;22.29;100.00;99990.03;4968686;28;20627;-64
2023/08/25 03:45:38;;;;;;;4.03;3.47;;;21.70;99.90;;;22.25;100.00;99981.59;4965252;28;20671;-64
2023/08/25 03:48:05;;;;;;;5.17;3.53;;;21.70;99.90;;;22.25;100.00;99983.47;4968349;28;20632;-64
2023/08/25 03:50:32;;;;;;;4.60;4.13;;;21.60;99.90;;;22.22;100.00;99975.88;4966897;28;20724;-64
2023/08/25 03:52:59;;;;;;;4.43;4.03;;;21.60;99.90;;;22.20;100.00;99965.47;4969132;28;20749;-64
2023/08/25 03:55:26;;;;;;;4.00;3.70;;;21.60;99.90;;;22.23;100.00;99964.25;4964067;28;21012;-64
2023/08/25 03:57:52;;;;;;;5.00;4.50;;;21.60;99.90;;;22.23;100.00;99946.44;4962057;28;20748;-64
2023/08/25 04:00:20;;;;;;;5.00;4.50;;;21.70;99.90;;;22.21;100.00;99947.69;4968206;28;21222;-64
2023/08/25 04:02:47;;;;;;;4.57;3.63;;;21.60;99.90;;;22.20;100.00;99954.84;4950819;28;20773;-64
2023/08/25 04:05:14;;;;;;;4.60;4.13;;;21.60;99.90;;;22.19;100.00;99963.03;4967154;28;20669;-64
2023/08/25 04:07:41;;;;;;;4.97;4.50;;;21.60;99.90;;;22.22;100.00;99975.88;4968627;28;21077;-65
2023/08/25 04:10:08;;;;;;;4.50;4.10;;;21.60;99.90;;;22.24;100.00;99977.34;4962287;28;21008;-64
2023/08/25 04:12:35;;;;;;;4.10;3.70;;;21.60;99.90;;;22.28;100.00;99978.56;4968572;28;20708;-64
2023/08/25 04:15:02;;;;;;;5.40;4.30;;;21.70;99.90;;;22.26;100.00;99987.75;4968123;28;20696;-64
2023/08/25 04:17:30;;;;;;;4.80;3.93;;;21.70;99.90;;;22.21;100.00;99992.88;4969151;28;20655;-64
2023/08/25 04:19:57;;;;;;;9.10;5.03;;;21.60;99.90;;;22.18;100.00;99994.09;4969111;28;20675;-64
2023/08/25 04:22:24;;;;;;;5.47;4.40;;;21.60;99.90;;;22.21;100.00;100011.47;4967431;28;21046;-64
2023/08/25 04:24:51;;;;;;;7.53;5.70;;;21.60;99.90;;;22.25;100.00;100047.25;4962790;28;20647;-64
2023/08/25 04:27:18;;;;;;;7.57;5.70;;;21.60;99.90;;;22.28;100.00;100086.69;4967132;28;20796;-64
2023/08/25 04:29:47;;;;;;;4.30;3.90;;;21.70;99.90;;;22.34;100.00;100101.84;4967253;28;20642;-64
2023/08/25 04:32:15;;;;;;;4.43;3.63;;;21.80;99.90;;;22.37;100.00;100083.69;4968810;28;20689;-65
2023/08/25 04:34:42;;;;;;;5.40;4.03;;;21.80;99.90;;;22.27;100.00;100061.97;4968520;28;20637;-65
2023/08/25 04:37:08;;;;;;;2.13;1.93;;;21.80;99.90;;;22.13;100.00;99995.69;4966440;28;20687;-65
2023/08/25 04:39:35;;;;;;;7.87;3.27;;;21.60;99.90;;;22.07;100.00;99943.34;4964604;28;20651;-65
2023/08/25 04:42:02;;;;;;;4.70;4.13;;;21.60;99.90;;;21.96;100.00;99943.94;4967747;28;21127;-64
2023/08/25 04:44:29;;;;;;;4.20;2.77;;;21.50;99.90;;;21.85;100.00;99880.78;4968076;28;20674;-64
2023/08/25 04:46:56;;;;;;;4.33;3.33;;;21.30;99.90;;;21.82;100.00;99850.16;4966164;28;20634;-64
2023/08/25 04:49:23;;;;;;;4.87;4.37;;;21.30;99.90;;;21.78;100.00;99883.41;4976205;28;20718;-64
2023/08/25 04:51:50;;;;;;;6.83;4.73;;;21.20;99.90;;;21.82;100.00;99905.06;4966356;28;20666;-64
2023/08/25 04:54:17;;;;;;;6.47;4.40;;;21.20;99.90;;;21.87;100.00;99905.31;4964910;28;20673;-64
2023/08/25 04:56:44;;;;;;;9.23;6.30;;;21.30;99.90;;;21.98;100.00;99888.75;4964523;28;20654;-64
2023/08/25 04:59:11;;;;;;;6.10;4.77;;;21.40;99.90;;;22.14;100.00;99939.72;4964976;28;21146;-64
2023/08/25 05:01:39;;;;;;;4.77;4.27;;;21.60;99.90;;;22.22;100.00;99925.41;4966279;28;21232;-64
2023/08/25 05:04:08;;;;;;;5.30;4.53;;;21.70;99.90;;;22.29;100.00;99942.19;4968439;28;20624;-64
2023/08/25 05:06:35;;;;;;;4.17;3.87;;;21.70;99.90;;;22.37;100.00;99981.84;4965689;28;20647;-64
2023/08/25 05:09:02;;;;;;;3.70;3.40;;;21.80;99.90;;;22.38;100.00;100016.19;4963585;28;20733;-65
2023/08/25 05:11:29;;;;;;;3.30;3.00;;;21.80;99.90;;;22.40;100.00;99997.41;4958441;28;20756;-64
2023/08/25 05:13:56;;;;;;;3.53;3.33;;;21.90;99.90;;;22.40;100.00;100003.53;4967563;28;20627;-64
2023/08/25 05:16:23;;;;;;;3.30;3.00;;;21.80;99.90;;;22.36;100.00;100014.75;4965572;28;20635;-64
2023/08/25 05:18:50;;;;;;;4.00;3.33;;;21.80;99.90;;;22.38;100.00;100048.09;4967365;28;20749;-65
2023/08/25 05:21:17;;;;;;;3.10;2.90;;;21.80;99.90;;;22.40;100.00;100093.91;4967914;28;20661;-64
2023/08/25 05:23:48;;;;;;;4.30;3.90;;;21.80;99.90;;;22.42;100.00;100148.72;4955450;28;20728;-64
2023/08/25 05:26:15;;;;;;;4.57;4.03;;;21.90;99.90;;;22.42;100.00;100150.34;4965257;28;20731;-64
2023/08/25 05:28:43;;;;;;;3.70;3.40;;;21.90;99.90;;;22.42;100.00;100136.25;4966834;28;20742;-64
2023/08/25 05:31:10;;;;;;;7.10;3.20;;;21.90;99.90;;;22.45;100.00;100154.44;4965206;28;20663;-64
2023/08/25 05:33:38;;;;;;;2.93;2.60;;;21.90;99.90;;;22.44;100.00;100158.13;4968351;28;21189;-64
2023/08/25 05:36:05;;;;;;;3.20;2.90;;;21.90;99.90;;;22.42;100.00;100153.00;4964873;28;20760;-65
2023/08/25 05:38:32;;;;;;;4.07;2.93;;;21.90;99.90;;;22.42;100.00;100171.59;4962731;28;20645;-65
2023/08/25 05:40:59;;;;;;;3.93;3.40;;;21.90;99.90;;;22.42;100.00;100154.84;4965264;28;20764;-64
2023/08/25 05:43:26;;;;;;;3.70;3.27;;;21.90;99.90;;;22.41;100.00;100158.53;4966457;28;20702;-64
2023/08/25 05:45:53;;;;;;;2.70;2.50;;;21.90;99.90;;;22.36;100.00;100163.59;4964667;28;20678;-64
2023/08/25 05:48:20;;;;;;;2.37;2.27;;;21.80;99.90;;;22.35;100.00;100151.34;4972560;28;20638;-65
2023/08/25 05:50:47;;;;;;;3.83;2.70;;;21.90;99.90;;;22.32;99.08;100143.75;4979860;28;20747;-64
2023/08/25 05:53:14;;;;;;;3.03;2.37;;;21.80;99.90;;;22.26;99.15;100147.19;4986210;28;21291;-64
2023/08/25 05:55:41;;;;;;;2.87;2.67;;;21.80;99.90;;;22.20;100.00;100145.34;4963789;28;20654;-65
2023/08/25 05:58:08;;;;;;;3.73;1.80;;;21.70;99.90;;;22.23;100.00;100121.84;4966235;28;20704;-64
2023/08/25 06:00:35;;;;;;;2.00;1.90;;;21.70;99.90;;;22.21;100.00;100096.50;4962534;28;21223;-65
2023/08/25 06:03:03;;;;;;;3.70;2.03;;;21.70;99.90;;;22.21;100.00;100078.69;4966009;28;20667;-64
2023/08/25 06:05:31;;;;;;;1.63;1.53;;;21.70;99.90;;;22.15;100.00;100052.09;4964586;28;20654;-65
2023/08/25 06:07:58;;;;;;;3.10;2.00;;;21.70;99.90;;;22.11;100.00;100048.19;4966484;28;20666;-64
2023/08/25 06:10:25;;;;;;;1.50;1.40;;;21.60;99.90;;;21.96;100.00;100011.16;4961794;28;21104;-64
2023/08/25 06:12:51;;;;;;;1.90;1.80;;;21.50;99.90;;;21.94;100.00;99986.63;4966373;28;20698;-64
2023/08/25 06:15:18;;;;;;;3.30;2.37;;;21.40;99.90;;;21.85;100.00;99995.78;4964569;28;20642;-64
2023/08/25 06:17:45;;;;;;;1.90;1.80;;;21.40;99.90;;;21.75;100.00;99986.50;4964979;28;20644;-65
2023/08/25 06:20:13;;;;;;;2.27;2.07;;;21.30;99.90;;;21.72;100.00;99977.13;4962662;28;20625;-66
2023/08/25 06:22:40;;;;;;;2.37;2.17;;;21.20;99.90;;;21.70;99.48;99971.16;4964635;28;20707;-64
2023/08/25 06:25:08;;;;;;;1.73;1.60;;;21.20;99.90;;;21.64;98.77;99956.03;4961199;28;20738;-64
2023/08/25 06:27:35;;;;;;;2.00;1.90;;;21.20;99.90;;;21.61;97.59;99975.03;4965802;28;21056;-65
2023/08/25 06:30:03;;;;;;;1.70;1.60;;;21.10;99.90;;;21.64;98.07;100009.97;4964574;28;21230;-64
2023/08/25 06:32:30;;;;;;;3.17;2.50;;;21.10;99.90;;;21.72;98.78;100024.09;4965103;28;20647;-64
2023/08/25 06:34:57;;;;;;;2.20;2.00;;;21.20;99.90;;;21.76;96.87;100034.13;4965879;28;21122;-64
2023/08/25 06:37:24;;;;;;;1.70;1.60;;;21.20;99.90;;;21.66;97.09;100046.13;4973762;28;20661;-64
2023/08/25 06:39:52;;;;;;;3.37;2.00;;;21.20;99.90;;;21.57;97.56;100054.22;4963204;28;20650;-64
2023/08/25 06:42:19;;;;;;;2.00;1.90;;;21.10;99.90;;;21.49;97.48;100057.03;4967511;28;20690;-64
2023/08/25 06:44:46;;;;;;;2.03;1.93;;;21.00;99.90;;;21.47;98.17;100067.03;4966267;28;20624;-64
2023/08/25 06:47:13;;;;;;;2.10;2.00;;;21.00;99.90;;;21.51;97.78;100062.97;4967837;28;20627;-64
2023/08/25 06:49:40;;;;;;;4.93;2.20;;;21.00;99.90;;;21.48;97.88;100047.44;4968554;28;20643;-64
2023/08/25 06:52:06;;;;;;;1.77;1.67;;;21.00;99.90;;;21.46;98.53;100040.69;4969097;28;20649;-65
2023/08/25 06:54:36;;;;;;;2.83;2.53;;;20.90;99.90;;;21.47;99.10;100060.91;4966785;28;20747;-64
2023/08/25 06:57:03;;;;;;;3.53;2.73;;;20.90;99.90;;;21.53;99.79;100065.41;4968930;28;20646;-64
2023/08/25 06:59:30;;;;;;;3.00;2.80;;;21.00;99.90;;;21.65;100.00;100085.13;4968965;28;21281;-64
2023/08/25 07:01:57;;;;;;;2.10;2.00;;;21.10;99.90;;;21.75;99.64;100092.72;4968754;28;20683;-64
2023/08/25 07:04:25;;;;;;;2.60;2.20;;;21.20;99.90;;;21.80;99.29;100095.63;4967841;28;21091;-63
2023/08/25 07:06:52;;;;;;;3.37;2.70;;;21.20;99.90;;;21.86;99.37;100092.22;4972714;28;20631;-64
2023/08/25 07:09:19;;;;;;;1.87;1.77;;;21.30;99.90;;;21.86;99.15;100081.59;4965297;28;20639;-64
2023/08/25 07:11:46;;;;;;;2.10;1.70;;;21.30;99.90;;;21.79;99.28;100059.44;4964799;28;21046;-64
2023/08/25 07:14:12;;;;;;;2.33;2.13;;;21.30;99.90;;;21.81;99.79;100058.25;4968754;28;20681;-64
2023/08/25 07:16:39;;;;;;;2.30;2.10;;;21.30;99.90;;;21.81;100.00;100044.97;4978616;28;20627;-64
2023/08/25 07:19:06;;;;;;;2.20;2.03;;;21.30;99.90;;;21.85;100.00;100056.88;4967787;28;20666;-64
2023/08/25 07:21:33;;;;;;;2.43;2.23;;;21.30;99.90;;;21.81;100.00;100052.94;4967433;28;20728;-64
2023/08/25 07:24:00;;;;;;;2.80;2.30;;;21.30;99.90;;;21.85;100.00;100050.75;4963504;28;20736;-65
2023/08/25 07:26:28;;;;;;;2.23;2.13;;;21.30;99.90;;;21.86;100.00;100052.38;4966551;28;20765;-64
2023/08/25 07:28:55;;;;;;;2.27;2.17;;;21.30;99.90;;;21.85;100.00;100029.50;4969279;28;20624;-64
2023/08/25 07:31:22;;;;;;;2.43;2.07;;;21.30;99.90;;;21.85;100.00;100025.00;4965934;28;20655;-64
2023/08/25 07:33:49;;;;;;;2.77;2.57;;;21.30;99.90;;;21.90;100.00;100027.06;4964161;28;20751;-65
2023/08/25 07:36:19;;;;;;;2.50;2.27;;;21.40;99.90;;;21.91;100.00;100047.31;4965635;28;20778;-65
2023/08/25 07:38:46;;;;;;;3.17;2.83;;;21.40;99.90;;;21.93;100.00;100069.19;4966091;28;20639;-63
2023/08/25 07:41:15;;;;;;;2.23;2.03;;;21.40;99.90;;;22.06;100.00;100074.56;4966771;28;20723;-64
2023/08/25 07:43:42;;;;;;;2.80;2.60;;;21.50;99.90;;;22.34;100.00;100077.91;4968857;28;20677;-64
2023/08/25 07:46:13;;;;;;;5.67;3.00;;;21.70;99.90;;;22.86;100.00;100096.72;4962666;28;21299;-64
2023/08/25 07:48:40;;;;;;;2.43;2.23;;;22.20;99.90;;;23.51;96.47;100109.25;4965609;28;21055;-64
2023/08/25 07:51:06;;;;;;;3.77;3.40;;;22.80;99.90;;;24.32;91.52;100107.06;4962741;28;21358;-65
2023/08/25 07:53:33;;;;;;;2.07;1.83;;;23.60;99.90;;;24.74;85.71;100110.94;4965544;28;20650;-63
2023/08/25 07:56:00;;;;;;;3.70;2.00;;;24.10;99.90;;;24.60;86.17;100087.00;4960250;28;20654;-65
2023/08/25 07:58:28;;;;;;;3.83;2.20;;;24.10;99.90;;;24.21;86.72;100084.53;4967129;28;20667;-64
2023/08/25 08:00:54;;;;;;;2.10;2.00;;;23.80;99.90;;;23.93;89.49;100091.97;4965843;28;20765;-65
2023/08/25 08:03:21;;;;;;;1.70;1.60;;;23.50;99.90;;;23.74;91.23;100099.00;4969734;28;20670;-65
2023/08/25 08:05:49;;;;;;;3.93;2.33;;;23.30;99.90;;;23.63;92.57;100106.78;4969110;28;21192;-65
2023/08/25 08:08:16;;;;;;;2.27;2.07;;;23.20;99.90;;;23.57;93.66;100102.31;4965461;28;20744;-65
2023/08/25 08:10:42;;;;;;;2.50;2.30;;;23.10;99.90;;;23.46;94.69;100097.59;4959730;28;20756;-64
2023/08/25 08:13:09;;;;;;;2.50;2.33;;;23.00;99.90;;;23.31;96.06;100083.66;4965919;28;20647;-64
2023/08/25 08:15:36;;;;;;;3.10;2.83;;;22.90;99.90;;;23.24;96.47;100078.31;4966245;28;20659;-65
2023/08/25 08:18:04;;;;;;;3.10;2.70;;;22.80;99.90;;;23.13;97.72;100086.91;4967348;28;20647;-64
2023/08/25 08:20:33;;;;;;;2.20;1.43;;;22.60;99.90;;;23.00;97.76;100095.69;4968810;28;20634;-65
2023/08/25 08:23:01;;;;;;;2.93;2.57;;;22.50;99.90;;;22.94;98.86;100088.53;4966718;28;21076;-64
2023/08/25 08:25:29;;;;;;;2.80;2.60;;;22.40;99.90;;;22.94;99.30;100111.66;4959930;28;21145;-63
2023/08/25 08:27:56;;;;;;;1.70;1.60;;;22.40;99.90;;;22.95;99.55;100087.53;4973691;28;20689;-65
2023/08/25 08:30:23;;;;;;;3.87;2.80;;;22.40;99.90;;;22.93;99.64;100094.91;4967048;28;21353;-64
2023/08/25 08:32:50;;;;;;;2.97;2.70;;;22.40;99.90;;;23.15;99.23;100104.31;4963634;28;20636;-64
2023/08/25 08:35:18;;;;;;;1.80;1.70;;;22.50;99.90;;;23.57;95.64;100103.13;4968095;28;21220;-64
2023/08/25 08:37:45;;;;;;;1.90;1.80;;;23.00;99.90;;;24.21;92.32;100095.22;4963186;28;20635;-64
2023/08/25 08:40:12;;;;;;;3.00;1.90;;;23.60;99.90;;;25.14;86.70;100105.16;4965789;28;20647;-65
2023/08/25 08:42:40;;;;;;;2.40;2.20;;;24.50;99.90;;;26.09;81.31;100115.41;4966759;28;21262;-65
2023/08/25 08:45:09;;;;;;;1.83;1.73;;;;;;;27.09;75.80;100105.84;4971545;28;20638;-65
2023/08/25 08:47:38;;;;;;;1.10;1.03;;;26.50;99.90;;;27.64;71.97;100115.25;4966441;28;21222;-65
2023/08/25 08:50:07;;;;;;;1.50;1.50;;;27.30;99.90;;;27.62;72.13;100103.13;4968607;28;20631;-64
2023/08/25 08:52:35;;;;;;;1.87;1.73;;;27.30;99.90;;;27.45;71.97;100100.31;4968468;28;20662;-65
2023/08/25 08:55:05;;;;;;;2.13;1.63;;;27.20;99.90;;;26.83;74.11;100095.53;4964200;28;21096;-65
2023/08/25 08:57:32;;;;;;;1.37;1.27;;;26.60;99.90;;;26.33;76.69;100091.47;4964021;28;20647;-64
2023/08/25 08:59:59;;;;;;;1.67;1.57;;;26.00;99.90;;;26.50;76.43;100098.66;4962678;28;20678;-65
2023/08/25 09:02:28;;;;;;;2.83;1.63;;;26.00;99.90;;;27.02;73.94;100096.28;4961981;28;20694;-65
2023/08/25 09:04:59;;;;;;;1.57;1.47;;;26.40;99.90;;;27.14;72.01;100089.09;4966275;28;21232;-65
2023/08/25 09:07:31;;;;;;;1.30;1.30;;;26.60;99.90;;;27.12;71.89;100093.84;4964448;28;21045;-64
2023/08/25 09:10:00;;;;;;;1.97;1.87;;;26.60;99.90;;;27.12;72.38;100089.31;4962472;28;20734;-65
2023/08/25 09:12:27;;;;;;;1.37;1.20;;;26.60;99.90;;;26.96;72.32;100097.22;4964219;28;20677;-64
2023/08/25 09:14:54;;;;;;;1.60;1.50;;;26.40;99.90;;;26.68;73.58;100097.78;4959867;28;20720;-65
2023/08/25 09:17:21;;;;;;;2.50;1.90;;;26.20;99.90;;;26.50;74.00;100082.59;4964518;28;20730;-65
2023/08/25 09:19:49;;;;;;;1.20;1.20;;;26.00;99.90;;;26.34;74.75;100077.88;4967615;28;20628;-64
2023/08/25 09:22:19;;;;;;;1.83;1.73;;;25.80;99.90;;;26.09;74.93;100069.94;4963408;28;20721;-64
2023/08/25 09:24:46;;;;;;;1.80;1.70;;;25.50;99.90;;;26.21;75.61;100055.81;4966204;28;20638;-65
2023/08/25 09:27:25;;;;;;;1.43;1.03;;;25.60;99.90;;;26.07;74.44;100045.25;4972134;28;20639;-64
2023/08/25 09:30:03;;;;;;;1.67;1.57;;;25.50;99.90;;;25.93;73.82;100041.13;4989669;28;21334;-64
2023/08/25 09:32:31;;;;;;;5.90;1.50;;;25.40;99.90;;;25.90;74.39;100030.88;5004894;28;20663;-65
2023/08/25 09:35:14;;;;;;;1.27;1.17;;;25.30;99.90;;;25.91;74.30;100061.91;4965406;28;21057;-64
2023/08/25 09:37:43;;;;;;;1.20;1.20;;;25.30;99.90;;;25.85;74.13;100056.66;4968159;28;20692;-65
2023/08/25 09:40:14;;;;;;;1.07;1.07;;;25.30;99.90;;;25.81;74.88;100056.25;4965406;28;20681;-65
2023/08/25 09:42:42;;;;;;;1.40;1.40;;;25.20;99.90;;;25.63;74.38;100055.44;4964979;28;20679;-64
2023/08/25 09:45:11;;;;;;;0.80;0.67;;;25.10;99.90;;;25.55;75.23;100050.38;4966915;28;21011;-66
2023/08/25 09:47:41;;;;;;;1.27;1.27;;;25.00;99.90;;;25.44;75.30;100041.25;4962644;28;20643;-64
2023/08/25 09:50:16;;;;;;;0.90;0.90;;;24.90;99.90;;;25.30;76.96;100039.69;4967608;28;20636;-65
2023/08/25 09:52:44;;;;;;;2.27;2.07;;;24.80;99.90;;;25.15;76.74;100039.25;4965189;28;20721;-64
2023/08/25 09:55:12;;;;;;;1.53;1.43;;;24.60;99.90;;;25.06;77.60;100027.19;4965696;28;21077;-65
2023/08/25 09:57:43;;;;;;;1.60;1.50;;;24.50;99.90;;;24.97;77.72;100026.66;4964030;28;20639;-65
2023/08/25 10:00:12;;;;;;;1.33;1.23;;;24.40;99.90;;;24.98;77.97;100038.94;4965387;28;20752;-64
2023/08/25 10:02:38;;;;;;;1.30;1.30;;;24.40;99.90;;;24.96;77.97;100038.34;4961449;28;20673;-65
2023/08/25 10:05:09;;;;;;;1.60;1.40;;;24.40;99.90;;;25.00;78.15;100033.41;4962386;28;21207;-65
2023/08/25 10:07:36;;;;;;;2.00;1.77;;;24.40;99.90;;;25.04;78.64;100039.94;4966094;28;20639;-65
2023/08/25 10:10:03;;;;;;;1.77;1.63;;;24.40;99.90;;;25.12;77.78;100055.69;4963117;28;20735;-64
2023/08/25 10:12:34;;;;;;;0.87;0.87;;;24.50;99.90;;;25.10;78.69;100052.41;4969803;28;20663;-65
2023/08/25 10:15:05;;;;;;;1.07;0.97;;;24.50;99.90;;;25.06;78.59;100045.88;4967349;28;20643;-65
2023/08/25 10:17:36;;;;;;;2.03;1.30;;;24.50;99.90;;;25.05;78.52;100050.41;4965115;28;20643;-65